createdAt,value
2017-08-02T00:00:02.362Z,20.88
2017-08-02T00:00:06.887Z,20.87
2017-08-02T00:00:11.234Z,20.9
2017-08-02T00:00:15.730Z,20.83
2017-08-02T00:00:20.195Z,20.91
2017-08-02T00:00:24.534Z,20.91
2017-08-02T00:00:28.879Z,20.91
2017-08-02T00:00:33.228Z,20.85
2017-08-02T00:00:37.709Z,20.88
2017-08-02T00:00:42.053Z,20.85
2017-08-02T00:00:46.516Z,20.87
2017-08-02T00:00:50.629Z,20.88
2017-08-02T00:00:55.102Z,20.82
2017-08-02T00:00:59.467Z,20.85
2017-08-02T00:01:04.031Z,20.91
2017-08-02T00:01:08.506Z,20.93
2017-08-02T00:01:12.968Z,20.88
2017-08-02T00:01:17.445Z,20.83
2017-08-02T00:01:21.910Z,20.87
2017-08-02T00:01:26.384Z,20.91
2017-08-02T00:01:30.855Z,20.81
2017-08-02T00:01:35.076Z,20.9
2017-08-02T00:01:39.540Z,20.9
2017-08-02T00:01:43.873Z,20.93
2017-08-02T00:01:48.238Z,20.9
2017-08-02T00:01:52.604Z,20.9
2017-08-02T00:01:57.072Z,20.85
2017-08-02T00:02:01.190Z,20.91
2017-08-02T00:02:05.643Z,20.93
2017-08-02T00:02:10.005Z,20.83
2017-08-02T00:02:14.481Z,20.94
2017-08-02T00:02:18.946Z,20.9
2017-08-02T00:02:23.403Z,20.87
2017-08-02T00:02:27.873Z,20.87
2017-08-02T00:02:32.232Z,20.87
2017-08-02T00:02:36.480Z,20.85
2017-08-02T00:02:40.953Z,20.87
2017-08-02T00:02:45.313Z,20.93
2017-08-02T00:02:49.772Z,20.97
2017-08-02T00:02:54.008Z,20.88
2017-08-02T00:02:58.249Z,20.87
2017-08-02T00:03:02.775Z,20.93
2017-08-02T00:03:07.109Z,20.87
2017-08-02T00:03:11.463Z,20.87
2017-08-02T00:03:15.930Z,20.96
2017-08-02T00:03:20.147Z,20.83
2017-08-02T00:03:24.485Z,20.88
2017-08-02T00:03:28.732Z,20.97
2017-08-02T00:03:33.227Z,20.82
2017-08-02T00:03:37.576Z,20.91
2017-08-02T00:03:41.945Z,20.88
2017-08-02T00:03:46.311Z,20.98
2017-08-02T00:03:50.785Z,20.94
2017-08-02T00:03:55.254Z,20.88
2017-08-02T00:03:59.742Z,20.85
2017-08-02T00:04:04.098Z,20.88
2017-08-02T00:04:08.333Z,20.96
2017-08-02T00:04:12.567Z,20.88
2017-08-02T00:04:17.024Z,20.88
2017-08-02T00:04:21.254Z,20.96
2017-08-02T00:04:25.734Z,20.88
2017-08-02T00:04:30.183Z,20.97
2017-08-02T00:04:34.645Z,20.94
2017-08-02T00:04:38.879Z,20.98
2017-08-02T00:04:43.357Z,20.88
2017-08-02T00:04:47.720Z,20.87
2017-08-02T00:04:51.964Z,20.96
2017-08-02T00:04:56.426Z,21
2017-08-02T00:05:00.876Z,20.85
2017-08-02T00:05:04.868Z,20.98
2017-08-02T00:05:09.332Z,20.96
2017-08-02T00:05:13.450Z,20.9
2017-08-02T00:05:17.794Z,20.97
2017-08-02T00:05:22.252Z,20.88
2017-08-02T00:05:26.592Z,20.97
2017-08-02T00:05:31.071Z,20.93
2017-08-02T00:05:35.409Z,20.91
2017-08-02T00:05:39.750Z,20.98
2017-08-02T00:05:44.102Z,20.91
2017-08-02T00:05:48.447Z,20.85
2017-08-02T00:05:52.798Z,21
2017-08-02T00:05:57.042Z,20.9
2017-08-02T00:06:01.287Z,20.96
2017-08-02T00:06:05.406Z,20.88
2017-08-02T00:06:09.752Z,20.98
2017-08-02T00:06:14.104Z,21
2017-08-02T00:06:18.337Z,20.88
2017-08-02T00:06:22.682Z,20.88
2017-08-02T00:06:27.030Z,20.97
2017-08-02T00:06:31.507Z,20.94
2017-08-02T00:06:35.984Z,21
2017-08-02T00:06:40.453Z,20.93
2017-08-02T00:06:44.792Z,21
2017-08-02T00:06:49.161Z,20.96
2017-08-02T00:06:53.636Z,20.96
2017-08-02T00:06:58.103Z,20.97
2017-08-02T00:07:02.495Z,20.88
2017-08-02T00:07:06.858Z,20.96
2017-08-02T00:07:11.326Z,20.94
2017-08-02T00:07:15.800Z,21
2017-08-02T00:07:20.145Z,20.88
2017-08-02T00:07:24.605Z,20.96
2017-08-02T00:07:28.972Z,20.94
2017-08-02T00:07:33.320Z,20.97
2017-08-02T00:07:37.677Z,20.91
2017-08-02T00:07:42.168Z,20.94
2017-08-02T00:07:46.661Z,20.98
2017-08-02T00:07:51.108Z,20.96
2017-08-02T00:07:55.447Z,20.88
2017-08-02T00:07:59.904Z,20.96
2017-08-02T00:08:04.510Z,20.91
2017-08-02T00:08:08.735Z,20.97
2017-08-02T00:08:12.948Z,20.91
2017-08-02T00:08:17.185Z,20.96
2017-08-02T00:08:21.661Z,20.85
2017-08-02T00:08:26.014Z,21
2017-08-02T00:08:30.485Z,20.94
2017-08-02T00:08:34.596Z,21
2017-08-02T00:08:39.077Z,20.98
2017-08-02T00:08:43.419Z,20.91
2017-08-02T00:08:47.877Z,20.83
2017-08-02T00:08:52.228Z,20.88
2017-08-02T00:08:56.578Z,20.9
2017-08-02T00:09:00.925Z,20.93
2017-08-02T00:09:05.547Z,20.88
2017-08-02T00:09:09.772Z,20.85
2017-08-02T00:09:14.113Z,20.9
2017-08-02T00:09:18.574Z,20.96
2017-08-02T00:09:22.935Z,20.9
2017-08-02T00:09:27.283Z,20.88
2017-08-02T00:09:31.744Z,20.93
2017-08-02T00:09:36.086Z,20.94
2017-08-02T00:09:40.532Z,20.88
2017-08-02T00:09:44.996Z,20.91
2017-08-02T00:09:49.465Z,20.91
2017-08-02T00:09:53.812Z,20.94
2017-08-02T00:09:58.297Z,21
2017-08-02T00:10:02.876Z,20.96
2017-08-02T00:10:07.110Z,20.97
2017-08-02T00:10:11.452Z,20.96
2017-08-02T00:10:15.943Z,20.94
2017-08-02T00:10:20.325Z,20.91
2017-08-02T00:10:24.890Z,20.98
2017-08-02T00:10:29.120Z,20.88
2017-08-02T00:10:33.487Z,20.97
2017-08-02T00:10:37.854Z,20.98
2017-08-02T00:10:42.323Z,20.91
2017-08-02T00:10:46.783Z,20.96
2017-08-02T00:10:51.241Z,20.97
2017-08-02T00:10:55.705Z,20.9
2017-08-02T00:11:00.067Z,20.9
2017-08-02T00:11:04.726Z,20.97
2017-08-02T00:11:09.093Z,21.01
2017-08-02T00:11:13.442Z,20.94
2017-08-02T00:11:17.905Z,20.94
2017-08-02T00:11:22.277Z,21
2017-08-02T00:11:26.751Z,21.01
2017-08-02T00:11:31.088Z,21.01
2017-08-02T00:11:35.546Z,21
2017-08-02T00:11:40.022Z,20.94
2017-08-02T00:11:44.490Z,21
2017-08-02T00:11:48.846Z,21.01
2017-08-02T00:11:53.186Z,20.97
2017-08-02T00:11:57.664Z,21.01
2017-08-02T00:12:02.143Z,21.01
2017-08-02T00:12:06.493Z,20.98
2017-08-02T00:12:10.822Z,20.97
2017-08-02T00:12:15.300Z,21.01
2017-08-02T00:12:19.637Z,21.01
2017-08-02T00:12:24.114Z,20.98
2017-08-02T00:12:28.338Z,20.97
2017-08-02T00:12:32.703Z,20.97
2017-08-02T00:12:37.048Z,20.93
2017-08-02T00:12:41.509Z,20.94
2017-08-02T00:12:45.739Z,20.94
2017-08-02T00:12:50.235Z,20.91
2017-08-02T00:12:54.593Z,21.03
2017-08-02T00:12:59.045Z,21.01
2017-08-02T00:13:03.519Z,20.96
2017-08-02T00:13:07.989Z,20.93
2017-08-02T00:13:12.462Z,20.97
2017-08-02T00:13:16.925Z,20.98
2017-08-02T00:13:21.411Z,21.03
2017-08-02T00:13:25.765Z,20.93
2017-08-02T00:13:30.227Z,21.06
2017-08-02T00:13:34.694Z,21
2017-08-02T00:13:39.166Z,20.97
2017-08-02T00:13:43.637Z,21.05
2017-08-02T00:13:48.099Z,20.96
2017-08-02T00:13:52.321Z,20.93
2017-08-02T00:13:56.793Z,21.01
2017-08-02T00:14:01.118Z,21.05
2017-08-02T00:14:05.587Z,21.03
2017-08-02T00:14:10.056Z,21.08
2017-08-02T00:14:14.396Z,20.96
2017-08-02T00:14:18.870Z,21
2017-08-02T00:14:23.220Z,21.01
2017-08-02T00:14:27.679Z,20.94
2017-08-02T00:14:32.155Z,20.98
2017-08-02T00:14:36.617Z,20.97
2017-08-02T00:14:40.967Z,21.05
2017-08-02T00:14:45.304Z,20.97
2017-08-02T00:14:49.773Z,20.98
2017-08-02T00:14:54.220Z,20.97
2017-08-02T00:14:58.696Z,21.01
2017-08-02T00:15:03.405Z,21
2017-08-02T00:15:07.874Z,21.05
2017-08-02T00:15:12.224Z,21
2017-08-02T00:15:16.347Z,21.01
2017-08-02T00:15:20.697Z,21.03
2017-08-02T00:15:25.163Z,21.01
2017-08-02T00:15:29.514Z,20.97
2017-08-02T00:15:33.987Z,20.97
2017-08-02T00:15:38.330Z,21.11
2017-08-02T00:15:42.797Z,21.05
2017-08-02T00:15:47.264Z,21.03
2017-08-02T00:15:51.652Z,21.06
2017-08-02T00:15:56.133Z,21.03
2017-08-02T00:16:00.590Z,20.96
2017-08-02T00:16:04.824Z,21.09
2017-08-02T00:16:09.286Z,21.09
2017-08-02T00:16:13.757Z,21.12
2017-08-02T00:16:18.117Z,21.15
2017-08-02T00:16:22.348Z,21.08
2017-08-02T00:16:26.701Z,21.08
2017-08-02T00:16:31.154Z,21.09
2017-08-02T00:16:35.506Z,21.11
2017-08-02T00:16:39.866Z,21.11
2017-08-02T00:16:44.330Z,21.08
2017-08-02T00:16:48.807Z,21.13
2017-08-02T00:16:53.168Z,21.09
2017-08-02T00:16:57.640Z,21.05
2017-08-02T00:17:01.986Z,21.08
2017-08-02T00:17:06.453Z,21.16
2017-08-02T00:17:10.897Z,21.05
2017-08-02T00:17:15.233Z,21.09
2017-08-02T00:17:19.696Z,21.03
2017-08-02T00:17:24.051Z,21.06
2017-08-02T00:17:28.516Z,21.06
2017-08-02T00:17:32.862Z,21.09
2017-08-02T00:17:37.215Z,21.11
2017-08-02T00:17:41.434Z,21.01
2017-08-02T00:17:45.770Z,21.05
2017-08-02T00:17:50.117Z,21.08
2017-08-02T00:17:54.585Z,21.11
2017-08-02T00:17:59.050Z,21.09
2017-08-02T00:18:03.524Z,21.09
2017-08-02T00:18:07.639Z,21.08
2017-08-02T00:18:12.101Z,21.12
2017-08-02T00:18:16.566Z,21.06
2017-08-02T00:18:20.814Z,21.11
2017-08-02T00:18:25.185Z,21.09
2017-08-02T00:18:29.642Z,21.11
2017-08-02T00:18:34.108Z,21.08
2017-08-02T00:18:38.453Z,21.09
2017-08-02T00:18:42.940Z,21.09
2017-08-02T00:18:47.272Z,21.06
2017-08-02T00:18:51.613Z,21.13
2017-08-02T00:18:56.097Z,21.15
2017-08-02T00:19:00.559Z,21.11
2017-08-02T00:19:05.213Z,21.11
2017-08-02T00:19:09.669Z,21.11
2017-08-02T00:19:14.151Z,21.13
2017-08-02T00:19:18.604Z,21.11
2017-08-02T00:19:22.818Z,21.11
2017-08-02T00:19:27.166Z,21.11
2017-08-02T00:19:31.508Z,21.08
2017-08-02T00:19:35.963Z,21.11
2017-08-02T00:19:40.207Z,21.13
2017-08-02T00:19:44.548Z,21.12
2017-08-02T00:19:48.900Z,21.12
2017-08-02T00:19:53.254Z,21.13
2017-08-02T00:19:57.603Z,21.16
2017-08-02T00:20:02.078Z,21.11
2017-08-02T00:20:06.437Z,21.08
2017-08-02T00:20:10.787Z,21.15
2017-08-02T00:20:15.254Z,21.18
2017-08-02T00:20:19.728Z,21.15
2017-08-02T00:20:24.070Z,21.12
2017-08-02T00:20:28.402Z,21.11
2017-08-02T00:20:32.520Z,21.16
2017-08-02T00:20:36.870Z,21.12
2017-08-02T00:20:41.343Z,21.12
2017-08-02T00:20:45.813Z,21.11
2017-08-02T00:20:50.061Z,21.15
2017-08-02T00:20:54.409Z,21.11
2017-08-02T00:20:58.636Z,21.11
2017-08-02T00:21:02.867Z,21.15
2017-08-02T00:21:07.337Z,21.12
2017-08-02T00:21:11.807Z,21.08
2017-08-02T00:21:16.293Z,21.03
2017-08-02T00:21:20.754Z,21.13
2017-08-02T00:21:25.209Z,21.08
2017-08-02T00:21:29.564Z,21.15
2017-08-02T00:21:34.033Z,21.11
2017-08-02T00:21:38.482Z,21.18
2017-08-02T00:21:42.824Z,21.13
2017-08-02T00:21:47.092Z,21.09
2017-08-02T00:21:51.422Z,21.13
2017-08-02T00:21:55.763Z,21.13
2017-08-02T00:22:00.238Z,21.09
2017-08-02T00:22:04.736Z,21.15
2017-08-02T00:22:08.954Z,21.12
2017-08-02T00:22:13.429Z,21.16
2017-08-02T00:22:17.904Z,21.09
2017-08-02T00:22:22.389Z,21.15
2017-08-02T00:22:26.855Z,21.12
2017-08-02T00:22:31.184Z,21.13
2017-08-02T00:22:35.530Z,21.11
2017-08-02T00:22:40.015Z,21.11
2017-08-02T00:22:44.475Z,21.12
2017-08-02T00:22:48.712Z,21.11
2017-08-02T00:22:52.953Z,21.13
2017-08-02T00:22:57.415Z,21.09
2017-08-02T00:23:01.635Z,21.12
2017-08-02T00:23:05.871Z,21.15
2017-08-02T00:23:10.340Z,21.15
2017-08-02T00:23:14.831Z,21.13
2017-08-02T00:23:19.302Z,21.11
2017-08-02T00:23:23.658Z,21.13
2017-08-02T00:23:28.012Z,21.12
2017-08-02T00:23:32.010Z,21.11
2017-08-02T00:23:36.478Z,21.13
2017-08-02T00:23:40.950Z,21.18
2017-08-02T00:23:45.439Z,21.12
2017-08-02T00:23:49.554Z,21.13
2017-08-02T00:23:54.023Z,21.12
2017-08-02T00:23:58.486Z,21.08
2017-08-02T00:24:02.943Z,21.15
2017-08-02T00:24:07.420Z,21.09
2017-08-02T00:24:11.771Z,21.15
2017-08-02T00:24:16.253Z,21.13
2017-08-02T00:24:20.604Z,21.12
2017-08-02T00:24:25.063Z,21.15
2017-08-02T00:24:29.535Z,21.15
2017-08-02T00:24:33.871Z,21.13
2017-08-02T00:24:38.366Z,21.03
2017-08-02T00:24:42.710Z,21.13
2017-08-02T00:24:46.937Z,21.12
2017-08-02T00:24:51.046Z,21.12
2017-08-02T00:24:55.498Z,21.15
2017-08-02T00:24:59.980Z,21.12
2017-08-02T00:25:04.202Z,21.13
2017-08-02T00:25:08.682Z,21.11
2017-08-02T00:25:13.027Z,21.18
2017-08-02T00:25:17.499Z,21.11
2017-08-02T00:25:21.942Z,21.11
2017-08-02T00:25:26.289Z,21.13
2017-08-02T00:25:30.747Z,21.11
2017-08-02T00:25:34.952Z,21.12
2017-08-02T00:25:39.411Z,21.09
2017-08-02T00:25:43.642Z,21.06
2017-08-02T00:25:47.995Z,21.15
2017-08-02T00:25:52.461Z,21.11
2017-08-02T00:25:56.933Z,21.13
2017-08-02T00:26:01.389Z,21.09
2017-08-02T00:26:06.049Z,21.09
2017-08-02T00:26:10.520Z,21.12
2017-08-02T00:26:14.860Z,21.15
2017-08-02T00:26:19.323Z,21.15
2017-08-02T00:26:23.554Z,21.12
2017-08-02T00:26:27.904Z,21.08
2017-08-02T00:26:32.354Z,21.06
2017-08-02T00:26:36.827Z,21.08
2017-08-02T00:26:41.059Z,21.11
2017-08-02T00:26:45.287Z,21.16
2017-08-02T00:26:49.753Z,21.09
2017-08-02T00:26:54.105Z,21.05
2017-08-02T00:26:58.558Z,21.11
2017-08-02T00:27:02.778Z,21.12
2017-08-02T00:27:07.235Z,21.12
2017-08-02T00:27:11.695Z,21.01
2017-08-02T00:27:16.171Z,21.09
2017-08-02T00:27:20.633Z,21.01
2017-08-02T00:27:24.880Z,21.08
2017-08-02T00:27:29.343Z,21.06
2017-08-02T00:27:33.814Z,21.09
2017-08-02T00:27:38.161Z,21.11
2017-08-02T00:27:42.517Z,21.08
2017-08-02T00:27:46.873Z,21.11
2017-08-02T00:27:51.346Z,21.13
2017-08-02T00:27:55.695Z,21.11
2017-08-02T00:28:00.045Z,21.11
2017-08-02T00:28:04.592Z,21.11
2017-08-02T00:28:08.959Z,21.06
2017-08-02T00:28:13.435Z,21.08
2017-08-02T00:28:17.911Z,21.11
2017-08-02T00:28:22.271Z,21.08
2017-08-02T00:28:26.620Z,21.09
2017-08-02T00:28:31.087Z,21.09
2017-08-02T00:28:35.431Z,21.08
2017-08-02T00:28:39.777Z,21.05
2017-08-02T00:28:44.228Z,21.06
2017-08-02T00:28:48.684Z,21.05
2017-08-02T00:28:53.032Z,21.05
2017-08-02T00:28:57.480Z,21.08
2017-08-02T00:29:01.938Z,21.06
2017-08-02T00:29:06.404Z,21.09
2017-08-02T00:29:10.868Z,21.11
2017-08-02T00:29:15.099Z,21.13
2017-08-02T00:29:19.564Z,21.09
2017-08-02T00:29:23.912Z,21.08
2017-08-02T00:29:28.264Z,21.05
2017-08-02T00:29:32.365Z,20.98
2017-08-02T00:29:36.826Z,21.12
2017-08-02T00:29:41.066Z,21.05
2017-08-02T00:29:45.534Z,21.08
2017-08-02T00:29:49.996Z,21.05
2017-08-02T00:29:54.351Z,21.08
2017-08-02T00:29:58.714Z,21.11
2017-08-02T00:30:03.062Z,21.09
2017-08-02T00:30:07.541Z,21
2017-08-02T00:30:11.991Z,21.09
2017-08-02T00:30:16.470Z,21.01
2017-08-02T00:30:20.929Z,21
2017-08-02T00:30:25.170Z,21.01
2017-08-02T00:30:29.647Z,21.08
2017-08-02T00:30:34.034Z,21.09
2017-08-02T00:30:38.499Z,21.08
2017-08-02T00:30:42.968Z,21.06
2017-08-02T00:30:47.331Z,21.09
2017-08-02T00:30:51.667Z,21.03
2017-08-02T00:30:56.135Z,21.03
2017-08-02T00:31:00.492Z,21.08
2017-08-02T00:31:04.832Z,21
2017-08-02T00:31:09.315Z,20.98
2017-08-02T00:31:13.672Z,21.06
2017-08-02T00:31:18.026Z,21.01
2017-08-02T00:31:22.502Z,20.97
2017-08-02T00:31:26.864Z,20.98
2017-08-02T00:31:31.092Z,21.06
2017-08-02T00:31:35.567Z,20.96
2017-08-02T00:31:40.033Z,21.01
2017-08-02T00:31:44.526Z,21.05
2017-08-02T00:31:48.862Z,21.03
2017-08-02T00:31:53.204Z,20.96
2017-08-02T00:31:57.682Z,20.97
2017-08-02T00:32:02.199Z,21.03
2017-08-02T00:32:06.426Z,21.01
2017-08-02T00:32:10.638Z,21.01
2017-08-02T00:32:15.104Z,21.01
2017-08-02T00:32:19.567Z,20.94
2017-08-02T00:32:24.018Z,21.01
2017-08-02T00:32:28.487Z,21
2017-08-02T00:32:32.953Z,21.03
2017-08-02T00:32:37.400Z,21.08
2017-08-02T00:32:41.853Z,21.05
2017-08-02T00:32:46.327Z,21.03
2017-08-02T00:32:50.793Z,21
2017-08-02T00:32:55.140Z,21.06
2017-08-02T00:32:59.614Z,21.05
2017-08-02T00:33:03.482Z,21.09
2017-08-02T00:33:07.844Z,21
2017-08-02T00:33:12.304Z,21.05
2017-08-02T00:33:16.780Z,21.03
2017-08-02T00:33:21.134Z,21.08
2017-08-02T00:33:25.491Z,20.91
2017-08-02T00:33:29.947Z,21
2017-08-02T00:33:34.274Z,20.96
2017-08-02T00:33:38.640Z,21
2017-08-02T00:33:42.862Z,20.97
2017-08-02T00:33:47.198Z,20.93
2017-08-02T00:33:51.306Z,20.97
2017-08-02T00:33:55.546Z,20.96
2017-08-02T00:33:59.902Z,20.98
2017-08-02T00:34:04.454Z,20.9
2017-08-02T00:34:08.915Z,20.97
2017-08-02T00:34:13.377Z,20.97
2017-08-02T00:34:17.859Z,21.03
2017-08-02T00:34:22.196Z,20.98
2017-08-02T00:34:26.537Z,20.97
2017-08-02T00:34:30.892Z,20.96
2017-08-02T00:34:35.374Z,21
2017-08-02T00:34:39.841Z,20.98
2017-08-02T00:34:44.334Z,20.88
2017-08-02T00:34:48.774Z,20.94
2017-08-02T00:34:52.991Z,21.01
2017-08-02T00:34:57.319Z,20.97
2017-08-02T00:35:01.674Z,20.97
2017-08-02T00:35:06.094Z,20.97
2017-08-02T00:35:10.558Z,20.93
2017-08-02T00:35:15.016Z,20.98
2017-08-02T00:35:19.259Z,20.93
2017-08-02T00:35:23.607Z,20.97
2017-08-02T00:35:27.952Z,20.93
2017-08-02T00:35:32.303Z,20.87
2017-08-02T00:35:36.770Z,20.93
2017-08-02T00:35:41.231Z,20.98
2017-08-02T00:35:45.695Z,20.88
2017-08-02T00:35:50.145Z,20.93
2017-08-02T00:35:54.516Z,20.87
2017-08-02T00:35:58.980Z,20.87
2017-08-02T00:36:03.202Z,20.97
2017-08-02T00:36:07.544Z,20.85
2017-08-02T00:36:11.645Z,20.9
2017-08-02T00:36:16.107Z,20.9
2017-08-02T00:36:20.557Z,20.91
2017-08-02T00:36:25.019Z,20.9
2017-08-02T00:36:29.518Z,20.85
2017-08-02T00:36:33.868Z,20.94
2017-08-02T00:36:38.100Z,20.91
2017-08-02T00:36:42.549Z,20.9
2017-08-02T00:36:46.903Z,20.9
2017-08-02T00:36:51.228Z,20.87
2017-08-02T00:36:55.686Z,20.87
2017-08-02T00:37:00.021Z,20.88
2017-08-02T00:37:04.501Z,20.91
2017-08-02T00:37:08.844Z,20.91
2017-08-02T00:37:13.071Z,20.91
2017-08-02T00:37:17.422Z,20.87
2017-08-02T00:37:21.882Z,20.91
2017-08-02T00:37:26.234Z,20.85
2017-08-02T00:37:30.700Z,20.88
2017-08-02T00:37:35.158Z,20.87
2017-08-02T00:37:39.500Z,20.87
2017-08-02T00:37:43.734Z,20.88
2017-08-02T00:37:48.076Z,20.87
2017-08-02T00:37:52.550Z,20.91
2017-08-02T00:37:56.804Z,20.9
2017-08-02T00:38:01.142Z,20.91
2017-08-02T00:38:05.642Z,20.88
2017-08-02T00:38:10.122Z,20.91
2017-08-02T00:38:14.463Z,20.91
2017-08-02T00:38:18.800Z,20.88
2017-08-02T00:38:23.272Z,20.9
2017-08-02T00:38:27.742Z,20.85
2017-08-02T00:38:32.102Z,20.88
2017-08-02T00:38:36.547Z,20.81
2017-08-02T00:38:40.774Z,20.93
2017-08-02T00:38:45.137Z,20.87
2017-08-02T00:38:49.596Z,20.87
2017-08-02T00:38:53.709Z,20.87
2017-08-02T00:38:57.928Z,20.87
2017-08-02T00:39:02.044Z,20.83
2017-08-02T00:39:06.513Z,20.82
2017-08-02T00:39:10.871Z,20.91
2017-08-02T00:39:15.218Z,20.85
2017-08-02T00:39:19.580Z,20.9
2017-08-02T00:39:24.043Z,20.9
2017-08-02T00:39:28.516Z,20.82
2017-08-02T00:39:32.980Z,20.88
2017-08-02T00:39:37.326Z,20.9
2017-08-02T00:39:41.676Z,20.85
2017-08-02T00:39:46.005Z,20.9
2017-08-02T00:39:50.239Z,20.81
2017-08-02T00:39:54.581Z,20.83
2017-08-02T00:39:58.922Z,20.88
2017-08-02T00:40:03.279Z,20.82
2017-08-02T00:40:07.284Z,20.85
2017-08-02T00:40:11.735Z,20.87
2017-08-02T00:40:16.194Z,20.79
2017-08-02T00:40:20.547Z,20.85
2017-08-02T00:40:25.028Z,20.85
2017-08-02T00:40:29.737Z,20.85
2017-08-02T00:40:34.070Z,20.78
2017-08-02T00:40:38.525Z,20.76
2017-08-02T00:40:42.915Z,20.87
2017-08-02T00:40:47.379Z,20.87
2017-08-02T00:40:51.720Z,20.76
2017-08-02T00:40:56.184Z,20.78
2017-08-02T00:41:00.540Z,20.78
2017-08-02T00:41:04.780Z,20.78
2017-08-02T00:41:09.008Z,20.79
2017-08-02T00:41:13.349Z,20.87
2017-08-02T00:41:17.815Z,20.85
2017-08-02T00:41:22.267Z,20.78
2017-08-02T00:41:26.611Z,20.81
2017-08-02T00:41:31.070Z,20.78
2017-08-02T00:41:35.542Z,20.83
2017-08-02T00:41:39.880Z,20.78
2017-08-02T00:41:44.353Z,20.78
2017-08-02T00:41:48.823Z,20.76
2017-08-02T00:41:53.078Z,20.79
2017-08-02T00:41:57.531Z,20.83
2017-08-02T00:42:01.893Z,20.78
2017-08-02T00:42:06.136Z,20.72
2017-08-02T00:42:10.613Z,20.85
2017-08-02T00:42:15.086Z,20.79
2017-08-02T00:42:19.429Z,20.71
2017-08-02T00:42:23.895Z,20.73
2017-08-02T00:42:28.150Z,20.81
2017-08-02T00:42:32.624Z,20.82
2017-08-02T00:42:36.959Z,20.72
2017-08-02T00:42:41.434Z,20.81
2017-08-02T00:42:45.894Z,20.81
2017-08-02T00:42:50.112Z,20.69
2017-08-02T00:42:54.573Z,20.78
2017-08-02T00:42:58.803Z,20.81
2017-08-02T00:43:03.575Z,20.83
2017-08-02T00:43:07.918Z,20.71
2017-08-02T00:43:12.392Z,20.71
2017-08-02T00:43:16.851Z,20.79
2017-08-02T00:43:21.319Z,20.69
2017-08-02T00:43:25.791Z,20.78
2017-08-02T00:43:30.250Z,20.78
2017-08-02T00:43:34.711Z,20.75
2017-08-02T00:43:39.028Z,20.71
2017-08-02T00:43:43.247Z,20.73
2017-08-02T00:43:47.600Z,20.73
2017-08-02T00:43:52.059Z,20.75
2017-08-02T00:43:56.537Z,20.76
2017-08-02T00:44:01.014Z,20.78
2017-08-02T00:44:05.679Z,20.83
2017-08-02T00:44:10.162Z,20.75
2017-08-02T00:44:14.499Z,20.79
2017-08-02T00:44:18.967Z,20.83
2017-08-02T00:44:23.425Z,20.68
2017-08-02T00:44:27.898Z,20.72
2017-08-02T00:44:32.133Z,20.69
2017-08-02T00:44:36.604Z,20.76
2017-08-02T00:44:40.947Z,20.72
2017-08-02T00:44:45.167Z,20.79
2017-08-02T00:44:49.517Z,20.72
2017-08-02T00:44:53.857Z,20.76
2017-08-02T00:44:58.232Z,20.71
2017-08-02T00:45:02.925Z,20.72
2017-08-02T00:45:07.336Z,20.73
2017-08-02T00:45:11.791Z,20.76
2017-08-02T00:45:16.245Z,20.73
2017-08-02T00:45:20.704Z,20.76
2017-08-02T00:45:25.031Z,20.72
2017-08-02T00:45:29.495Z,20.73
2017-08-02T00:45:33.962Z,20.78
2017-08-02T00:45:38.306Z,20.75
2017-08-02T00:45:42.642Z,20.76
2017-08-02T00:45:46.876Z,20.72
2017-08-02T00:45:51.000Z,20.78
2017-08-02T00:45:55.455Z,20.76
2017-08-02T00:45:59.677Z,20.72
2017-08-02T00:46:04.025Z,20.76
2017-08-02T00:46:08.470Z,20.75
2017-08-02T00:46:12.923Z,20.76
2017-08-02T00:46:17.382Z,20.71
2017-08-02T00:46:21.744Z,20.75
2017-08-02T00:46:26.075Z,20.73
2017-08-02T00:46:30.430Z,20.71
2017-08-02T00:46:34.783Z,20.76
2017-08-02T00:46:39.251Z,20.78
2017-08-02T00:46:43.733Z,20.73
2017-08-02T00:46:48.181Z,20.73
2017-08-02T00:46:52.419Z,20.73
2017-08-02T00:46:56.771Z,20.75
2017-08-02T00:47:01.225Z,20.75
2017-08-02T00:47:05.569Z,20.75
2017-08-02T00:47:10.049Z,20.73
2017-08-02T00:47:14.524Z,20.76
2017-08-02T00:47:18.992Z,20.78
2017-08-02T00:47:23.462Z,20.76
2017-08-02T00:47:27.929Z,20.71
2017-08-02T00:47:32.293Z,20.73
2017-08-02T00:47:36.746Z,20.78
2017-08-02T00:47:40.967Z,20.76
2017-08-02T00:47:45.311Z,20.72
2017-08-02T00:47:49.784Z,20.76
2017-08-02T00:47:54.014Z,20.75
2017-08-02T00:47:58.478Z,20.72
2017-08-02T00:48:02.989Z,20.75
2017-08-02T00:48:07.350Z,20.73
2017-08-02T00:48:11.819Z,20.79
2017-08-02T00:48:16.282Z,20.76
2017-08-02T00:48:20.653Z,20.75
2017-08-02T00:48:25.011Z,20.73
2017-08-02T00:48:29.473Z,20.75
2017-08-02T00:48:33.939Z,20.75
2017-08-02T00:48:38.414Z,20.72
2017-08-02T00:48:42.758Z,20.76
2017-08-02T00:48:46.988Z,20.73
2017-08-02T00:48:51.310Z,20.75
2017-08-02T00:48:55.678Z,20.69
2017-08-02T00:49:00.008Z,20.73
2017-08-02T00:49:04.750Z,20.75
2017-08-02T00:49:09.089Z,20.72
2017-08-02T00:49:13.321Z,20.76
2017-08-02T00:49:17.665Z,20.75
2017-08-02T00:49:21.898Z,20.72
2017-08-02T00:49:26.340Z,20.75
2017-08-02T00:49:30.672Z,20.75
2017-08-02T00:49:35.019Z,20.73
2017-08-02T00:49:39.484Z,20.75
2017-08-02T00:49:43.835Z,20.75
2017-08-02T00:49:48.185Z,20.72
2017-08-02T00:49:52.417Z,20.76
2017-08-02T00:49:56.769Z,20.69
2017-08-02T00:50:01.223Z,20.73
2017-08-02T00:50:05.776Z,20.72
2017-08-02T00:50:10.019Z,20.71
2017-08-02T00:50:14.370Z,20.73
2017-08-02T00:50:18.824Z,20.71
2017-08-02T00:50:23.314Z,20.75
2017-08-02T00:50:27.656Z,20.76
2017-08-02T00:50:31.878Z,20.72
2017-08-02T00:50:36.233Z,20.73
2017-08-02T00:50:40.474Z,20.72
2017-08-02T00:50:44.569Z,20.79
2017-08-02T00:50:49.040Z,20.75
2017-08-02T00:50:53.394Z,20.73
2017-08-02T00:50:57.616Z,20.73
2017-08-02T00:51:02.312Z,20.72
2017-08-02T00:51:06.770Z,20.75
2017-08-02T00:51:10.983Z,20.71
2017-08-02T00:51:15.322Z,20.71
2017-08-02T00:51:19.781Z,20.73
2017-08-02T00:51:24.247Z,20.73
2017-08-02T00:51:28.719Z,20.76
2017-08-02T00:51:33.180Z,20.71
2017-08-02T00:51:37.419Z,20.71
2017-08-02T00:51:41.884Z,20.71
2017-08-02T00:51:46.230Z,20.71
2017-08-02T00:51:50.567Z,20.72
2017-08-02T00:51:55.020Z,20.68
2017-08-02T00:51:59.483Z,20.71
2017-08-02T00:52:04.087Z,20.71
2017-08-02T00:52:08.415Z,20.76
2017-08-02T00:52:12.754Z,20.75
2017-08-02T00:52:17.233Z,20.69
2017-08-02T00:52:21.468Z,20.69
2017-08-02T00:52:25.695Z,20.75
2017-08-02T00:52:30.155Z,20.75
2017-08-02T00:52:34.494Z,20.68
2017-08-02T00:52:38.836Z,20.71
2017-08-02T00:52:43.287Z,20.71
2017-08-02T00:52:47.747Z,20.69
2017-08-02T00:52:51.981Z,20.76
2017-08-02T00:52:56.334Z,20.72
2017-08-02T00:53:00.565Z,20.71
2017-08-02T00:53:05.283Z,20.75
2017-08-02T00:53:09.620Z,20.76
2017-08-02T00:53:13.966Z,20.73
2017-08-02T00:53:18.425Z,20.71
2017-08-02T00:53:22.891Z,20.69
2017-08-02T00:53:27.250Z,20.76
2017-08-02T00:53:31.629Z,20.73
2017-08-02T00:53:36.095Z,20.75
2017-08-02T00:53:40.560Z,20.75
2017-08-02T00:53:44.927Z,20.71
2017-08-02T00:53:49.389Z,20.73
2017-08-02T00:53:53.732Z,20.69
2017-08-02T00:53:58.200Z,20.73
2017-08-02T00:54:02.650Z,20.71
2017-08-02T00:54:07.129Z,20.69
2017-08-02T00:54:11.472Z,20.72
2017-08-02T00:54:15.942Z,20.75
2017-08-02T00:54:20.407Z,20.72
2017-08-02T00:54:24.628Z,20.66
2017-08-02T00:54:28.963Z,20.71
2017-08-02T00:54:33.287Z,20.71
2017-08-02T00:54:37.634Z,20.71
2017-08-02T00:54:42.097Z,20.66
2017-08-02T00:54:46.433Z,20.73
2017-08-02T00:54:50.765Z,20.69
2017-08-02T00:54:54.989Z,20.66
2017-08-02T00:54:59.445Z,20.71
2017-08-02T00:55:03.678Z,20.78
2017-08-02T00:55:08.126Z,20.69
2017-08-02T00:55:12.381Z,20.66
2017-08-02T00:55:16.844Z,20.69
2017-08-02T00:55:21.203Z,20.69
2017-08-02T00:55:25.541Z,20.73
2017-08-02T00:55:29.908Z,20.68
2017-08-02T00:55:34.010Z,20.66
2017-08-02T00:55:38.466Z,20.71
2017-08-02T00:55:42.943Z,20.66
2017-08-02T00:55:47.280Z,20.66
2017-08-02T00:55:51.506Z,20.69
2017-08-02T00:55:55.626Z,20.73
2017-08-02T00:55:59.967Z,20.71
2017-08-02T00:56:04.415Z,20.61
2017-08-02T00:56:08.760Z,20.66
2017-08-02T00:56:13.104Z,20.68
2017-08-02T00:56:17.458Z,20.68
2017-08-02T00:56:21.806Z,20.68
2017-08-02T00:56:26.267Z,20.66
2017-08-02T00:56:30.372Z,20.72
2017-08-02T00:56:34.728Z,20.68
2017-08-02T00:56:39.216Z,20.66
2017-08-02T00:56:43.669Z,20.69